Terminal Aerodrome Forecast
Issued by NWS

Home | Current Version | Previous Version | Text Only | Print | Product List | Glossary On
Versions: 1 2 3 4 5 6 7 8 9 10 11 12 13
000
FTUS42 TJSJ 301736
TAFJSJ
TAF
TJSJ 301736Z 3018/3118 05012KT P6SM FEW028 SCT050 SCT100
     FM302330 07014KT P6SM FEW050
     FM310400 09005KT P6SM FEW025 SCT035
     FM311400 06014KT P6SM SCT030=

USA.gov is the U.S. government's official web portal to all federal, state and local government web resources and services.